Edina, MN (55435)

2:05 AM CST on February 09, 2016 (GMT -0600)
Cornelia | | Change Station
CLOSE
Current Station
Personal Weather Station
Location: Edina, MN
Elevation: 860 ft
Nearby Weather Stations

Elev 860 ft 44.87 °N, 93.34 °W | Updated 5 seconds ago

Overcast
Overcast
11.7 °F
Feels Like 0 °F
N
8.7
Wind Variable Wind from NNE
Gusts 9.8 mph

Today
High -- | Low -- °F
--% Chance of Precip.
Yesterday
High -- | Low -- °F
Precip. -- in
Pressure 30.05 in
Visibility 9.0 miles
Clouds Overcast 5000 ft
Windchill 0 °F
Dew Point -3 °F
Humidity 52%
Rainfall 0.00 in
Snow Depth Not available.
7:23 AM 5:32 PM
New Moon, 1% visible
METAR KMSP 090753Z 33012G22KT 9SM -SN OVC050 M12/M17 A3000 RMK AO2 SLP176 P0000 T11171167
Pressure 30.05 in
Visibility 9.0 miles
Clouds Overcast 5000 ft
Windchill 0 °F
Dew Point -3 °F
Humidity 52%
Rainfall 0.00 in
Snow Depth Not available.
7:23 AM 5:32 PM
New Moon, 1% visible
METAR KMSP 090753Z 33012G22KT 9SM -SN OVC050 M12/M17 A3000 RMK AO2 SLP176 P0000 T11171167

10-Day Weather Forecast

Almanac

Astronomy

Feb. 09, 2016 Rise Set
Actual Time
Civil Twilight
Nautical Twilight
Astronomical Twilight
Moon
Length of Visible Light
Length of Day
Tomorrow will be .
, % of the Moon is Illuminated

Today's Extremes

State Highs State Lows

Community

WunderPhotos

Upload Photos

1,891,571 photos uploaded!

WunderBlog® & News

Nearby

Air Quality

  Air Quality AQ Index Pollutant
Not available.

Snow Depth

Station Depth Elevation

Earthquake Activity

City Distance Mag. Time & Date
Minimum magnitude displayed is 2.5.

Coastal Water Temperatures

Place Temperature

Stations

Nearby Weather Stations

Station Location Temp. Windchill Dew Point Humidity Wind Precip. Elev Updated Type
                   

Watches & Warnings

There are currently no watches in effect.